Check out our new PWSWeather beta!
PWSweather.com
Personal Weather Stations
Station Observations
PENICUIKWS
PenicuikGB

PenicuikGB

Lat: 55.830932, Lon: -3.224533000000065

Elevation: 166

Station Type: Fine Offset

http://weather.penicuik.org

High Low Average
Temperature 71.2°F21.8°C 46.0°F7.8°C 60.3°F15.7°C
Dew Point 58.1°F14.5°C 45.2°F7.3°C 53.3°F11.8°C
Winds 4.3 mph 6.9 kmh Calm Calm 2.0 mph E3.2 kmh E
Wind Gusts 7.6 mph12.2 kmh -- 3.0 mph4.8 kmh
Humidity 99% 54% 79%
Pressure 30.26 in1024.7 mb 30.22 in1023.4 mb -
Precipitation 0.00 in0.0 mm - -
Hour Temp Dew Point Humidity Winds Wind Gusts Pressure Precip Precip Rate Daily Precip Total
12:00 AM 51.1°F10.6°C 49.4°F9.7°C 94% Calm Calm -- 30.26 in1024.7 mb 0.00 in0.0 mm 0.00 in0.0 mm 0.00 in0.0 mm
12:15 AM 50.9°F10.5°C 49.5°F9.7°C 95% 0.6 mph SW1.0 kmh SW 1.6 mph2.6 kmh 30.26 in1024.7 mb 0.00 in0.0 mm 0.00 in0.0 mm 0.00 in0.0 mm
12:30 AM 50.4°F10.2°C 49.0°F9.4°C 95% Calm Calm -- 30.26 in1024.7 mb 0.00 in0.0 mm 0.00 in0.0 mm 0.00 in0.0 mm
12:45 AM 49.8°F9.9°C 48.7°F9.3°C 96% Calm Calm -- 30.26 in1024.7 mb 0.00 in0.0 mm 0.00 in0.0 mm 0.00 in0.0 mm
01:00 AM 49.5°F9.7°C 48.4°F9.1°C 96% Calm Calm -- 30.26 in1024.7 mb 0.00 in0.0 mm 0.00 in0.0 mm 0.00 in0.0 mm
01:15 AM 48.9°F9.4°C 47.8°F8.8°C 96% 0.3 mph SW0.5 kmh SW 0.7 mph1.1 kmh 30.26 in1024.7 mb 0.00 in0.0 mm 0.00 in0.0 mm 0.00 in0.0 mm
01:30 AM 48.7°F9.3°C 47.7°F8.7°C 96% 0.5 mph SW0.8 kmh SW 1.6 mph2.6 kmh 30.26 in1024.7 mb 0.00 in0.0 mm 0.00 in0.0 mm 0.00 in0.0 mm
01:45 AM 48.2°F9.0°C 47.4°F8.6°C 97% Calm Calm -- 30.26 in1024.7 mb 0.00 in0.0 mm 0.00 in0.0 mm 0.00 in0.0 mm
02:00 AM 48.0°F8.9°C 47.5°F8.6°C 98% Calm Calm 1.6 mph2.6 kmh 30.26 in1024.7 mb 0.00 in0.0 mm 0.00 in0.0 mm 0.00 in0.0 mm
02:15 AM 47.8°F8.8°C 47.3°F8.5°C 98% 0.2 mph N0.3 kmh N 1.6 mph2.6 kmh 30.26 in1024.7 mb 0.00 in0.0 mm 0.00 in0.0 mm 0.00 in0.0 mm
02:30 AM 47.7°F8.7°C 47.1°F8.4°C 98% 0.4 mph S0.6 kmh S 1.6 mph2.6 kmh 30.25 in1024.4 mb 0.00 in0.0 mm 0.00 in0.0 mm 0.00 in0.0 mm
02:45 AM 47.5°F8.6°C 46.9°F8.3°C 98% 0.8 mph SSW1.3 kmh SSW 3.1 mph5.0 kmh 30.25 in1024.4 mb 0.00 in0.0 mm 0.00 in0.0 mm 0.00 in0.0 mm
03:00 AM 47.1°F8.4°C 46.6°F8.1°C 98% 0.1 mph WNW0.2 kmh WNW 0.7 mph1.1 kmh 30.25 in1024.4 mb 0.00 in0.0 mm 0.00 in0.0 mm 0.00 in0.0 mm
03:15 AM 46.6°F8.1°C 46.0°F7.8°C 98% 0.1 mph S0.2 kmh S 0.7 mph1.1 kmh 30.25 in1024.4 mb 0.00 in0.0 mm 0.00 in0.0 mm 0.00 in0.0 mm
03:30 AM 46.2°F7.9°C 45.4°F7.4°C 97% 0.2 mph ENE0.3 kmh ENE 0.7 mph1.1 kmh 30.25 in1024.4 mb 0.00 in0.0 mm 0.00 in0.0 mm 0.00 in0.0 mm
03:45 AM 46.0°F7.8°C 45.2°F7.3°C 97% 0.1 mph SE0.2 kmh SE 0.7 mph1.1 kmh 30.25 in1024.4 mb 0.00 in0.0 mm 0.00 in0.0 mm 0.00 in0.0 mm
04:00 AM 46.4°F8.0°C 45.9°F7.7°C 98% 0.1 mph S0.2 kmh S 0.7 mph1.1 kmh 30.25 in1024.4 mb 0.00 in0.0 mm 0.00 in0.0 mm 0.00 in0.0 mm
04:15 AM 46.8°F8.2°C 46.5°F8.1°C 99% Calm Calm -- 30.25 in1024.4 mb 0.00 in0.0 mm 0.00 in0.0 mm 0.00 in0.0 mm
04:30 AM 47.3°F8.5°C 47.0°F8.3°C 99% 0.3 mph SE0.5 kmh SE 0.7 mph1.1 kmh 30.25 in1024.4 mb 0.00 in0.0 mm 0.00 in0.0 mm 0.00 in0.0 mm
04:45 AM 48.2°F9.0°C 47.7°F8.7°C 98% 0.3 mph SE0.5 kmh SE 1.6 mph2.6 kmh 30.25 in1024.4 mb 0.00 in0.0 mm 0.00 in0.0 mm 0.00 in0.0 mm
05:00 AM 49.1°F9.5°C 48.8°F9.3°C 99% 0.4 mph E0.6 kmh E 2.2 mph3.5 kmh 30.25 in1024.4 mb 0.00 in0.0 mm 0.00 in0.0 mm 0.00 in0.0 mm
05:15 AM 55.2°F12.9°C 53.8°F12.1°C 95% 1.7 mph S2.7 kmh S 2.2 mph3.5 kmh 30.25 in1024.4 mb 0.00 in0.0 mm 0.00 in0.0 mm 0.00 in0.0 mm
05:30 AM 58.5°F14.7°C 52.0°F11.1°C 79% 2.1 mph SE3.4 kmh SE 3.1 mph5.0 kmh 30.24 in1024.0 mb 0.00 in0.0 mm 0.00 in0.0 mm 0.00 in0.0 mm
05:45 AM 59.7°F15.4°C 50.3°F10.2°C 71% 2.8 mph S4.5 kmh S 3.8 mph6.1 kmh 30.24 in1024.0 mb 0.00 in0.0 mm 0.00 in0.0 mm 0.00 in0.0 mm
06:00 AM 61.7°F16.5°C 51.8°F11.0°C 70% 2.8 mph S4.5 kmh S 3.1 mph5.0 kmh 30.25 in1024.4 mb 0.00 in0.0 mm 0.00 in0.0 mm 0.00 in0.0 mm
06:15 AM 63.3°F17.4°C 52.6°F11.4°C 68% 3.0 mph SE4.8 kmh SE 3.8 mph6.1 kmh 30.25 in1024.4 mb 0.00 in0.0 mm 0.00 in0.0 mm 0.00 in0.0 mm
06:30 AM 64.0°F17.8°C 53.3°F11.8°C 68% 1.9 mph S3.1 kmh S 3.1 mph5.0 kmh 30.25 in1024.4 mb 0.00 in0.0 mm 0.00 in0.0 mm 0.00 in0.0 mm
06:45 AM 67.6°F19.8°C 53.7°F12.1°C 61% 1.5 mph S2.4 kmh S 3.1 mph5.0 kmh 30.25 in1024.4 mb 0.00 in0.0 mm 0.00 in0.0 mm 0.00 in0.0 mm
07:00 AM 71.1°F21.7°C 54.1°F12.3°C 55% 1.8 mph S2.9 kmh S 2.2 mph3.5 kmh 30.25 in1024.4 mb 0.00 in0.0 mm 0.00 in0.0 mm 0.00 in0.0 mm
07:15 AM 69.4°F20.8°C 54.0°F12.2°C 58% 1.9 mph NE3.1 kmh NE 3.8 mph6.1 kmh 30.25 in1024.4 mb 0.00 in0.0 mm 0.00 in0.0 mm 0.00 in0.0 mm
07:30 AM 70.9°F21.6°C 53.4°F11.9°C 54% 1.9 mph S3.1 kmh S 3.1 mph5.0 kmh 30.25 in1024.4 mb 0.00 in0.0 mm 0.00 in0.0 mm 0.00 in0.0 mm
07:45 AM 71.2°F21.8°C 53.8°F12.1°C 54% 2.5 mph NW4.0 kmh NW 4.5 mph7.2 kmh 30.25 in1024.4 mb 0.00 in0.0 mm 0.00 in0.0 mm 0.00 in0.0 mm
08:00 AM 69.4°F20.8°C 52.1°F11.2°C 54% 2.7 mph SSE4.3 kmh SSE 4.5 mph7.2 kmh 30.25 in1024.4 mb 0.00 in0.0 mm 0.00 in0.0 mm 0.00 in0.0 mm
08:15 AM 66.0°F18.9°C 52.6°F11.4°C 62% 2.6 mph NW4.2 kmh NW 4.5 mph7.2 kmh 30.25 in1024.4 mb 0.00 in0.0 mm 0.00 in0.0 mm 0.00 in0.0 mm
08:30 AM 65.8°F18.8°C 52.9°F11.6°C 63% 1.9 mph SW3.1 kmh SW 3.1 mph5.0 kmh 30.25 in1024.4 mb 0.00 in0.0 mm 0.00 in0.0 mm 0.00 in0.0 mm
08:45 AM 66.9°F19.4°C 52.6°F11.4°C 60% 2.7 mph SW4.3 kmh SW 7.6 mph12.2 kmh 30.25 in1024.4 mb 0.00 in0.0 mm 0.00 in0.0 mm 0.00 in0.0 mm
09:00 AM 66.7°F19.3°C 53.3°F11.8°C 62% 2.7 mph W4.3 kmh W 3.8 mph6.1 kmh 30.25 in1024.4 mb 0.00 in0.0 mm 0.00 in0.0 mm 0.00 in0.0 mm
09:15 AM 66.6°F19.2°C 53.2°F11.8°C 62% 3.1 mph SW5.0 kmh SW 4.5 mph7.2 kmh 30.25 in1024.4 mb 0.00 in0.0 mm 0.00 in0.0 mm 0.00 in0.0 mm
09:30 AM 66.9°F19.4°C 52.6°F11.4°C 60% 2.4 mph N3.9 kmh N 4.5 mph7.2 kmh 30.25 in1024.4 mb 0.00 in0.0 mm 0.00 in0.0 mm 0.00 in0.0 mm
09:45 AM 66.0°F18.9°C 53.5°F11.9°C 64% 2.0 mph NNE3.2 kmh NNE 3.8 mph6.1 kmh 30.25 in1024.4 mb 0.00 in0.0 mm 0.00 in0.0 mm 0.00 in0.0 mm
10:00 AM 65.3°F18.5°C 54.1°F12.3°C 67% 3.0 mph N4.8 kmh N 6.0 mph9.7 kmh 30.25 in1024.4 mb 0.00 in0.0 mm 0.00 in0.0 mm 0.00 in0.0 mm
10:15 AM 65.8°F18.8°C 55.0°F12.8°C 68% 3.2 mph NNE5.1 kmh NNE 3.8 mph6.1 kmh 30.25 in1024.4 mb 0.00 in0.0 mm 0.00 in0.0 mm 0.00 in0.0 mm
10:30 AM 66.6°F19.2°C 56.1°F13.4°C 69% 4.3 mph NNW6.9 kmh NNW 5.4 mph8.7 kmh 30.25 in1024.4 mb 0.00 in0.0 mm 0.00 in0.0 mm 0.00 in0.0 mm
10:45 AM 66.9°F19.4°C 55.6°F13.1°C 67% 3.0 mph NE4.8 kmh NE 3.8 mph6.1 kmh 30.25 in1024.4 mb 0.00 in0.0 mm 0.00 in0.0 mm 0.00 in0.0 mm
11:00 AM 65.8°F18.8°C 57.0°F13.9°C 73% 3.0 mph NNE4.8 kmh NNE 5.4 mph8.7 kmh 30.26 in1024.7 mb 0.00 in0.0 mm 0.00 in0.0 mm 0.00 in0.0 mm
11:15 AM 65.8°F18.8°C 56.6°F13.7°C 72% 4.3 mph N6.9 kmh N 6.9 mph11.1 kmh 30.25 in1024.4 mb 0.00 in0.0 mm 0.00 in0.0 mm 0.00 in0.0 mm
11:30 AM 66.7°F19.3°C 57.1°F13.9°C 71% 4.0 mph N6.4 kmh N 5.4 mph8.7 kmh 30.26 in1024.7 mb 0.00 in0.0 mm 0.00 in0.0 mm 0.00 in0.0 mm
11:45 AM 66.6°F19.2°C 57.3°F14.1°C 72% 3.6 mph N5.8 kmh N 5.4 mph8.7 kmh 30.25 in1024.4 mb 0.00 in0.0 mm 0.00 in0.0 mm 0.00 in0.0 mm
12:00 PM 66.4°F19.1°C 57.5°F14.2°C 73% 3.3 mph NNE5.3 kmh NNE 5.4 mph8.7 kmh 30.25 in1024.4 mb 0.00 in0.0 mm 0.00 in0.0 mm 0.00 in0.0 mm
12:15 PM 65.7°F18.7°C 57.2°F14.0°C 74% 3.0 mph NNE4.8 kmh NNE 6.0 mph9.7 kmh 30.25 in1024.4 mb 0.00 in0.0 mm 0.00 in0.0 mm 0.00 in0.0 mm
12:30 PM 65.8°F18.8°C 58.1°F14.5°C 76% 2.6 mph NE4.2 kmh NE 5.4 mph8.7 kmh 30.25 in1024.4 mb 0.00 in0.0 mm 0.00 in0.0 mm 0.00 in0.0 mm
12:45 PM 65.5°F18.6°C 57.4°F14.1°C 75% 2.7 mph N4.3 kmh N 3.8 mph6.1 kmh 30.25 in1024.4 mb 0.00 in0.0 mm 0.00 in0.0 mm 0.00 in0.0 mm
01:00 PM 65.8°F18.8°C 57.7°F14.3°C 75% 2.6 mph N4.2 kmh N 4.5 mph7.2 kmh 30.25 in1024.4 mb 0.00 in0.0 mm 0.00 in0.0 mm 0.00 in0.0 mm
01:15 PM 66.9°F19.4°C 57.6°F14.2°C 72% 1.8 mph NE2.9 kmh NE 3.1 mph5.0 kmh 30.24 in1024.0 mb 0.00 in0.0 mm 0.00 in0.0 mm 0.00 in0.0 mm
01:30 PM 66.7°F19.3°C 57.4°F14.1°C 72% 3.3 mph NNE5.3 kmh NNE 5.4 mph8.7 kmh 30.25 in1024.4 mb 0.00 in0.0 mm 0.00 in0.0 mm 0.00 in0.0 mm
01:45 PM 67.1°F19.5°C 57.8°F14.3°C 72% 3.4 mph N5.5 kmh N 5.4 mph8.7 kmh 30.25 in1024.4 mb 0.00 in0.0 mm 0.00 in0.0 mm 0.00 in0.0 mm
02:00 PM 66.7°F19.3°C 57.4°F14.1°C 72% 2.9 mph NNE4.7 kmh NNE 4.5 mph7.2 kmh 30.25 in1024.4 mb 0.00 in0.0 mm 0.00 in0.0 mm 0.00 in0.0 mm
02:15 PM 66.9°F19.4°C 57.6°F14.2°C 72% 2.4 mph N3.9 kmh N 3.8 mph6.1 kmh 30.24 in1024.0 mb 0.00 in0.0 mm 0.00 in0.0 mm 0.00 in0.0 mm
02:30 PM 66.4°F19.1°C 57.1°F13.9°C 72% 3.5 mph N5.6 kmh N 4.5 mph7.2 kmh 30.24 in1024.0 mb 0.00 in0.0 mm 0.00 in0.0 mm 0.00 in0.0 mm
02:45 PM 66.6°F19.2°C 57.3°F14.1°C 72% 2.9 mph N4.7 kmh N 4.5 mph7.2 kmh 30.25 in1024.4 mb 0.00 in0.0 mm 0.00 in0.0 mm 0.00 in0.0 mm
03:00 PM 66.6°F19.2°C 57.3°F14.1°C 72% 3.1 mph N5.0 kmh N 5.4 mph8.7 kmh 30.24 in1024.0 mb 0.00 in0.0 mm 0.00 in0.0 mm 0.00 in0.0 mm
03:15 PM 66.9°F19.4°C 57.2°F14.0°C 71% 2.7 mph N4.3 kmh N 3.8 mph6.1 kmh 30.24 in1024.0 mb 0.00 in0.0 mm 0.00 in0.0 mm 0.00 in0.0 mm
03:30 PM 66.2°F19.0°C 56.9°F13.8°C 72% 3.1 mph N5.0 kmh N 5.4 mph8.7 kmh 30.25 in1024.4 mb 0.00 in0.0 mm 0.00 in0.0 mm 0.00 in0.0 mm
03:45 PM 66.2°F19.0°C 57.3°F14.1°C 73% 2.1 mph N3.4 kmh N 3.1 mph5.0 kmh 30.23 in1023.7 mb 0.00 in0.0 mm 0.00 in0.0 mm 0.00 in0.0 mm
04:00 PM 66.0°F18.9°C 57.5°F14.2°C 74% 2.6 mph N4.2 kmh N 3.8 mph6.1 kmh 30.24 in1024.0 mb 0.00 in0.0 mm 0.00 in0.0 mm 0.00 in0.0 mm
04:15 PM 66.6°F19.2°C 57.7°F14.3°C 73% 2.2 mph N3.5 kmh N 3.1 mph5.0 kmh 30.23 in1023.7 mb 0.00 in0.0 mm 0.00 in0.0 mm 0.00 in0.0 mm
04:30 PM 66.0°F18.9°C 57.5°F14.2°C 74% 2.9 mph N4.7 kmh N 5.4 mph8.7 kmh 30.24 in1024.0 mb 0.00 in0.0 mm 0.00 in0.0 mm 0.00 in0.0 mm
04:45 PM 66.0°F18.9°C 57.5°F14.2°C 74% 2.8 mph N4.5 kmh N 4.5 mph7.2 kmh 30.23 in1023.7 mb 0.00 in0.0 mm 0.00 in0.0 mm 0.00 in0.0 mm
05:00 PM 65.8°F18.8°C 57.7°F14.3°C 75% 2.1 mph N3.4 kmh N 3.8 mph6.1 kmh 30.23 in1023.7 mb 0.00 in0.0 mm 0.00 in0.0 mm 0.00 in0.0 mm
05:15 PM 65.5°F18.6°C 57.4°F14.1°C 75% 2.5 mph NNE4.0 kmh NNE 3.8 mph6.1 kmh 30.24 in1024.0 mb 0.00 in0.0 mm 0.00 in0.0 mm 0.00 in0.0 mm
05:30 PM 65.7°F18.7°C 57.5°F14.2°C 75% 2.3 mph N3.7 kmh N 3.8 mph6.1 kmh 30.23 in1023.7 mb 0.00 in0.0 mm 0.00 in0.0 mm 0.00 in0.0 mm
05:45 PM 65.3°F18.5°C 57.2°F14.0°C 75% 3.2 mph N5.1 kmh N 4.5 mph7.2 kmh 30.23 in1023.7 mb 0.00 in0.0 mm 0.00 in0.0 mm 0.00 in0.0 mm
06:00 PM 65.5°F18.6°C 57.0°F13.9°C 74% 2.6 mph N4.2 kmh N 3.8 mph6.1 kmh 30.23 in1023.7 mb 0.00 in0.0 mm 0.00 in0.0 mm 0.00 in0.0 mm
06:15 PM 64.8°F18.2°C 56.3°F13.5°C 74% 3.5 mph N5.6 kmh N 4.5 mph7.2 kmh 30.23 in1023.7 mb 0.00 in0.0 mm 0.00 in0.0 mm 0.00 in0.0 mm
06:30 PM 64.4°F18.0°C 56.0°F13.3°C 74% 2.7 mph N4.3 kmh N 4.5 mph7.2 kmh 30.22 in1023.4 mb 0.00 in0.0 mm 0.00 in0.0 mm 0.00 in0.0 mm
06:45 PM 63.7°F17.6°C 55.3°F12.9°C 74% 2.4 mph N3.9 kmh N 3.8 mph6.1 kmh 30.23 in1023.7 mb 0.00 in0.0 mm 0.00 in0.0 mm 0.00 in0.0 mm
07:00 PM 63.1°F17.3°C 55.5°F13.1°C 76% 2.8 mph N4.5 kmh N 3.8 mph6.1 kmh 30.23 in1023.7 mb 0.00 in0.0 mm 0.00 in0.0 mm 0.00 in0.0 mm
07:15 PM 62.6°F17.0°C 55.3°F12.9°C 77% 3.0 mph N4.8 kmh N 3.8 mph6.1 kmh 30.23 in1023.7 mb 0.00 in0.0 mm 0.00 in0.0 mm 0.00 in0.0 mm
07:30 PM 61.9°F16.6°C 55.0°F12.8°C 78% 2.7 mph N4.3 kmh N 5.4 mph8.7 kmh 30.22 in1023.4 mb 0.00 in0.0 mm 0.00 in0.0 mm 0.00 in0.0 mm
07:45 PM 61.3°F16.3°C 54.8°F12.7°C 79% 3.0 mph N4.8 kmh N 5.4 mph8.7 kmh 30.23 in1023.7 mb 0.00 in0.0 mm 0.00 in0.0 mm 0.00 in0.0 mm
08:00 PM 61.2°F16.2°C 54.6°F12.6°C 79% 3.3 mph NE5.3 kmh NE 6.0 mph9.7 kmh 30.23 in1023.7 mb 0.00 in0.0 mm 0.00 in0.0 mm 0.00 in0.0 mm
08:15 PM 61.0°F16.1°C 54.4°F12.4°C 79% 1.6 mph NNE2.6 kmh NNE 2.2 mph3.5 kmh 30.23 in1023.7 mb 0.00 in0.0 mm 0.00 in0.0 mm 0.00 in0.0 mm
08:30 PM 60.4°F15.8°C 54.6°F12.6°C 81% 1.7 mph NNE2.7 kmh NNE 4.5 mph7.2 kmh 30.24 in1024.0 mb 0.00 in0.0 mm 0.00 in0.0 mm 0.00 in0.0 mm
08:45 PM 59.9°F15.5°C 54.4°F12.4°C 82% 0.5 mph NNE0.8 kmh NNE 1.6 mph2.6 kmh 30.23 in1023.7 mb 0.00 in0.0 mm 0.00 in0.0 mm 0.00 in0.0 mm
09:00 PM 59.0°F15.0°C 54.2°F12.3°C 84% 0.9 mph N1.4 kmh N 1.6 mph2.6 kmh 30.24 in1024.0 mb 0.00 in0.0 mm 0.00 in0.0 mm 0.00 in0.0 mm
09:15 PM 57.7°F14.3°C 53.6°F12.0°C 86% Calm Calm -- 30.24 in1024.0 mb 0.00 in0.0 mm 0.00 in0.0 mm 0.00 in0.0 mm
09:30 PM 56.3°F13.5°C 53.1°F11.7°C 89% Calm Calm -- 30.25 in1024.4 mb 0.00 in0.0 mm 0.00 in0.0 mm 0.00 in0.0 mm
09:45 PM 55.4°F13.0°C 52.5°F11.4°C 90% 0.3 mph SW0.5 kmh SW 1.6 mph2.6 kmh 30.26 in1024.7 mb 0.00 in0.0 mm 0.00 in0.0 mm 0.00 in0.0 mm
10:00 PM 54.7°F12.6°C 51.8°F11.0°C 90% Calm Calm -- 30.26 in1024.7 mb 0.00 in0.0 mm 0.00 in0.0 mm 0.00 in0.0 mm
10:15 PM 54.0°F12.2°C 51.1°F10.6°C 90% Calm Calm -- 30.25 in1024.4 mb 0.00 in0.0 mm 0.00 in0.0 mm 0.00 in0.0 mm
10:30 PM 53.1°F11.7°C 50.8°F10.4°C 92% Calm Calm -- 30.26 in1024.7 mb 0.00 in0.0 mm 0.00 in0.0 mm 0.00 in0.0 mm
10:45 PM 53.2°F11.8°C 51.3°F10.7°C 93% Calm Calm -- 30.25 in1024.4 mb 0.00 in0.0 mm 0.00 in0.0 mm 0.00 in0.0 mm
11:00 PM 53.8°F12.1°C 51.8°F11.0°C 93% Calm Calm -- 30.25 in1024.4 mb 0.00 in0.0 mm 0.00 in0.0 mm 0.00 in0.0 mm
11:15 PM 54.1°F12.3°C 52.2°F11.2°C 93% Calm Calm -- 30.25 in1024.4 mb 0.00 in0.0 mm 0.00 in0.0 mm 0.00 in0.0 mm
11:30 PM 54.7°F12.6°C 53.0°F11.7°C 94% Calm Calm -- 30.25 in1024.4 mb 0.00 in0.0 mm 0.00 in0.0 mm 0.00 in0.0 mm
11:45 PM 54.9°F12.7°C 53.2°F11.8°C 94% Calm Calm -- 30.25 in1024.4 mb 0.00 in0.0 mm 0.00 in0.0 mm 0.00 in0.0 mm